Time;durP1;ratioP1;P1;durP2;ratioP2;P2;SDS_P1;SDS_P2;PMS_P1;PMS_P2;Temp;Humidity;BMP_temperature;BMP_pressure;BME280_temperature;BME280_humidity;BME280_pressure;Samples;Min_cycle;Max_cycle;Signal;HPM_P1;HPM_P2
2022/04/24 00:01:52;;;;;;;6.83;5.27;;;8.70;99.90;;;;;;5053988;28;20649;-75
2022/04/24 00:04:20;;;;;;;6.87;4.90;;;8.60;99.90;;;;;;5052840;28;20207;-75
2022/04/24 00:06:47;;;;;;;9.50;5.07;;;8.50;99.90;;;;;;5054014;28;20199;-75
2022/04/24 00:09:15;;;;;;;6.70;4.97;;;8.50;99.90;;;;;;5052423;28;20218;-75
2022/04/24 00:11:42;;;;;;;8.03;4.83;;;8.50;99.90;;;;;;5054111;28;20289;-75
2022/04/24 00:14:10;;;;;;;7.03;4.80;;;8.30;99.90;;;;;;5050930;28;20329;-75
2022/04/24 00:16:37;;;;;;;7.07;4.97;;;8.20;99.90;;;;;;5053419;28;20213;-75
2022/04/24 00:19:05;;;;;;;7.17;5.10;;;8.20;99.90;;;;;;5053602;28;20264;-75
2022/04/24 00:21:33;;;;;;;8.60;5.33;;;8.20;99.90;;;;;;5053726;28;20225;-75
2022/04/24 00:24:01;;;;;;;10.23;5.60;;;7.70;99.90;;;;;;5052739;28;20231;-75
2022/04/24 00:26:28;;;;;;;6.60;5.13;;;7.40;99.90;;;;;;5052813;28;20198;-75
2022/04/24 00:28:55;;;;;;;9.27;5.37;;;7.20;99.90;;;;;;5051739;28;20581;-75
2022/04/24 00:31:22;;;;;;;8.67;5.47;;;7.00;99.90;;;;;;5051911;28;20539;-75
2022/04/24 00:33:49;;;;;;;7.13;5.37;;;7.00;99.90;;;;;;5053352;28;20245;-75
2022/04/24 00:36:16;;;;;;;7.07;5.47;;;6.90;99.90;;;;;;5050831;28;20730;-75
2022/04/24 00:38:44;;;;;;;7.90;5.63;;;6.60;99.90;;;;;;5052876;28;20203;-75
2022/04/24 00:41:11;;;;;;;8.07;5.20;;;6.40;99.90;;;;;;5052633;28;20191;-75
2022/04/24 00:43:38;;;;;;;7.50;5.53;;;6.30;99.90;;;;;;5053726;28;20641;-75
2022/04/24 00:46:13;;;;;;;11.37;5.73;;;6.30;99.90;;;;;;5052141;28;20264;-75
2022/04/24 00:48:40;;;;;;;9.33;5.77;;;6.40;99.90;;;;;;5052238;28;20198;-75
2022/04/24 00:51:08;;;;;;;7.77;4.97;;;6.40;99.90;;;;;;5052728;28;20219;-75
2022/04/24 00:53:35;;;;;;;9.60;5.77;;;6.40;99.90;;;;;;5051203;28;20199;-76
2022/04/24 00:56:05;;;;;;;9.73;5.70;;;6.40;99.90;;;;;;5053244;28;20650;-75
2022/04/24 00:58:33;;;;;;;8.67;5.10;;;6.90;99.90;;;;;;5053416;28;20199;-75
2022/04/24 01:01:01;;;;;;;9.63;5.23;;;6.90;99.90;;;;;;5053419;28;20265;-75
2022/04/24 01:03:28;;;;;;;8.80;5.67;;;6.80;99.90;;;;;;5052936;28;20681;-75
2022/04/24 01:05:56;;;;;;;6.97;5.40;;;6.70;99.90;;;;;;5052902;28;20234;-75
2022/04/24 01:08:23;;;;;;;11.27;5.50;;;6.70;99.90;;;;;;5053131;28;20207;-75
2022/04/24 01:10:50;;;;;;;7.00;5.27;;;6.80;99.90;;;;;;5052720;28;20254;-75
2022/04/24 01:13:19;;;;;;;8.57;5.30;;;6.70;99.90;;;;;;5053111;28;20253;-75
2022/04/24 01:15:46;;;;;;;8.70;5.67;;;6.70;99.90;;;;;;5052689;28;20650;-75
2022/04/24 01:18:14;;;;;;;7.07;5.17;;;6.50;99.90;;;;;;5052853;28;20203;-75
2022/04/24 01:20:42;;;;;;;8.03;5.10;;;6.50;99.90;;;;;;5052795;28;20210;-75
2022/04/24 01:23:09;;;;;;;6.97;4.97;;;6.50;99.90;;;;;;5052609;28;20237;-75
2022/04/24 01:25:37;;;;;;;9.10;5.40;;;6.40;99.90;;;;;;5038238;28;20208;-75
2022/04/24 01:28:08;;;;;;;9.60;5.20;;;6.90;99.90;;;;;;5033117;28;20211;-75
2022/04/24 01:30:35;;;;;;;9.10;5.37;;;7.00;99.90;;;;;;5032837;28;20232;-75
2022/04/24 01:33:03;;;;;;;9.50;5.30;;;6.90;99.90;;;;;;5040782;28;20203;-75
2022/04/24 01:35:30;;;;;;;9.93;5.47;;;6.90;99.90;;;;;;5052999;28;20210;-75
2022/04/24 01:37:58;;;;;;;8.03;5.57;;;6.70;99.90;;;;;;5052761;28;20199;-75
2022/04/24 01:40:26;;;;;;;8.00;5.50;;;6.50;99.90;;;;;;5052726;28;20199;-75
2022/04/24 01:42:53;;;;;;;10.33;5.50;;;6.50;99.90;;;;;;5052537;28;20253;-75
2022/04/24 01:45:20;;;;;;;7.93;5.27;;;6.40;99.90;;;;;;5052413;28;20265;-75
2022/04/24 01:47:47;;;;;;;8.73;5.30;;;6.30;99.90;;;;;;5051894;28;20191;-75
2022/04/24 01:50:13;;;;;;;7.27;5.13;;;6.30;99.90;;;;;;5052143;28;20292;-75
2022/04/24 01:52:41;;;;;;;10.17;5.30;;;6.50;99.90;;;;;;5052103;28;20191;-75
2022/04/24 01:55:09;;;;;;;6.97;4.93;;;6.40;99.90;;;;;;5052174;28;20191;-75
2022/04/24 01:57:36;;;;;;;7.27;4.73;;;6.30;99.90;;;;;;5052052;28;20203;-75
2022/04/24 02:00:04;;;;;;;5.80;4.80;;;6.20;99.90;;;;;;5052237;28;20207;-75
2022/04/24 02:02:31;;;;;;;6.73;4.90;;;6.10;99.90;;;;;;5051991;28;20206;-75
2022/04/24 02:04:58;;;;;;;8.13;4.60;;;6.00;99.90;;;;;;5052097;28;20199;-75
2022/04/24 02:07:25;;;;;;;7.73;5.23;;;5.90;99.90;;;;;;5051792;28;20638;-75
2022/04/24 02:09:52;;;;;;;7.23;4.87;;;5.90;99.90;;;;;;5051686;28;20218;-75
2022/04/24 02:12:20;;;;;;;7.60;5.70;;;6.00;99.90;;;;;;5051658;28;20249;-75
2022/04/24 02:14:47;;;;;;;6.23;4.87;;;6.00;99.90;;;;;;5051589;28;20260;-75
2022/04/24 02:17:14;;;;;;;9.47;5.33;;;6.00;99.90;;;;;;5050974;28;20758;-75
2022/04/24 02:19:41;;;;;;;9.97;5.33;;;6.10;99.90;;;;;;5051853;28;20202;-75
2022/04/24 02:22:08;;;;;;;8.57;5.27;;;6.00;99.90;;;;;;5052109;28;20661;-75
2022/04/24 02:24:35;;;;;;;6.93;4.27;;;5.90;99.90;;;;;;5049124;28;20256;-75
2022/04/24 02:27:02;;;;;;;8.60;4.90;;;5.80;99.90;;;;;;5051626;28;20257;-75
2022/04/24 02:29:30;;;;;;;7.77;5.07;;;5.70;99.90;;;;;;5051601;28;20206;-75
2022/04/24 02:31:58;;;;;;;8.13;5.53;;;5.60;99.90;;;;;;5051583;28;20211;-75
2022/04/24 02:34:26;;;;;;;7.83;5.10;;;5.60;99.90;;;;;;5050886;28;20210;-75
2022/04/24 02:36:53;;;;;;;10.97;5.50;;;5.60;99.90;;;;;;5051536;28;20210;-75
2022/04/24 02:39:20;;;;;;;8.20;4.90;;;5.60;99.90;;;;;;5045879;28;20196;-75
2022/04/24 02:41:47;;;;;;;8.33;5.73;;;5.70;99.90;;;;;;5044907;28;20264;-75
2022/04/24 02:44:14;;;;;;;6.80;4.90;;;5.70;99.90;;;;;;5045058;28;20232;-75
2022/04/24 02:46:42;;;;;;;8.03;5.63;;;5.70;99.90;;;;;;5050554;28;20279;-75
2022/04/24 02:49:09;;;;;;;8.63;5.10;;;5.60;99.90;;;;;;5050870;28;20257;-75
2022/04/24 02:51:36;;;;;;;8.47;5.00;;;5.60;99.90;;;;;;5050825;28;20222;-76
2022/04/24 02:54:03;;;;;;;8.73;5.10;;;5.70;99.90;;;;;;5050360;28;20207;-75
2022/04/24 02:56:30;;;;;;;10.77;5.10;;;5.60;99.90;;;;;;5050878;28;20272;-75
2022/04/24 02:58:57;;;;;;;8.97;6.50;;;5.60;99.90;;;;;;5050101;28;20207;-75
2022/04/24 03:01:24;;;;;;;7.37;5.10;;;5.50;99.90;;;;;;5049535;28;20210;-75
2022/04/24 03:03:53;;;;;;;8.50;5.23;;;5.40;99.90;;;;;;5050174;28;20268;-73
2022/04/24 03:06:20;;;;;;;9.53;5.43;;;5.30;99.90;;;;;;5050203;28;20256;-73
2022/04/24 03:08:47;;;;;;;8.53;5.53;;;5.30;99.90;;;;;;5050123;28;20735;-72
2022/04/24 03:11:15;;;;;;;8.30;5.00;;;5.30;99.90;;;;;;5049945;28;20225;-73
2022/04/24 03:13:43;;;;;;;9.43;5.37;;;5.30;99.90;;;;;;5050177;28;20283;-73
2022/04/24 03:16:11;;;;;;;8.40;5.47;;;5.20;99.90;;;;;;5049678;28;20194;-72
2022/04/24 03:18:38;;;;;;;10.57;5.40;;;5.20;99.90;;;;;;5050384;28;20207;-73
2022/04/24 03:21:06;;;;;;;7.23;5.43;;;5.10;99.90;;;;;;5050659;28;20234;-73
2022/04/24 03:23:33;;;;;;;8.57;5.17;;;5.10;99.90;;;;;;5049757;28;20623;-73
2022/04/24 03:26:00;;;;;;;9.13;5.43;;;5.20;99.90;;;;;;5050152;28;20265;-73
2022/04/24 03:28:27;;;;;;;10.70;5.20;;;5.20;99.90;;;;;;5049650;28;20202;-73
2022/04/24 03:30:54;;;;;;;8.43;5.40;;;5.20;99.90;;;;;;5052900;28;20262;-73
2022/04/24 03:33:22;;;;;;;10.50;5.97;;;5.20;99.90;;;;;;5053343;28;20203;-73
2022/04/24 03:35:49;;;;;;;9.00;5.40;;;5.30;99.90;;;;;;5053038;28;20260;-73
2022/04/24 03:38:18;;;;;;;9.07;5.53;;;5.40;99.90;;;;;;5052628;28;20672;-72
2022/04/24 03:40:45;;;;;;;8.97;5.80;;;5.30;99.90;;;;;;5054836;28;20712;-73
2022/04/24 03:43:12;;;;;;;9.50;5.57;;;5.20;99.90;;;;;;5051795;28;20191;-73
2022/04/24 03:45:39;;;;;;;10.07;5.67;;;5.10;99.90;;;;;;5053411;28;20207;-73
2022/04/24 03:48:06;;;;;;;7.27;5.30;;;5.00;99.90;;;;;;5053292;28;20202;-73
2022/04/24 03:50:33;;;;;;;7.73;5.13;;;5.10;99.90;;;;;;5053335;28;20222;-73
2022/04/24 03:53:00;;;;;;;11.33;5.70;;;5.10;99.90;;;;;;5054310;28;20276;-73
2022/04/24 03:55:30;;;;;;;8.70;4.67;;;5.20;99.90;;;;;;5053291;28;20233;-73
2022/04/24 03:57:57;;;;;;;9.43;5.20;;;5.20;99.90;;;;;;5053651;28;20205;-73
2022/04/24 04:00:24;;;;;;;9.67;5.27;;;5.30;99.90;;;;;;5052518;28;20261;-73
2022/04/24 04:02:52;;;;;;;8.17;4.70;;;5.20;99.90;;;;;;5053084;28;20207;-73
2022/04/24 04:05:20;;;;;;;8.60;4.80;;;4.90;99.90;;;;;;5051170;28;20203;-73
2022/04/24 04:07:47;;;;;;;8.33;4.40;;;4.90;99.90;;;;;;5052168;28;20238;-73
2022/04/24 04:10:15;;;;;;;7.80;4.70;;;4.90;99.90;;;;;;5050686;28;20580;-73
2022/04/24 04:12:43;;;;;;;9.73;5.00;;;4.80;99.90;;;;;;5052914;28;20195;-73
2022/04/24 04:15:10;;;;;;;10.30;5.17;;;4.80;99.90;;;;;;5050651;28;20256;-73
2022/04/24 04:17:38;;;;;;;7.43;5.17;;;5.00;99.90;;;;;;5051344;28;20242;-73
2022/04/24 04:20:11;;;;;;;10.03;5.80;;;4.90;99.90;;;;;;5052096;28;20576;-73
2022/04/24 04:22:52;;;;;;;7.33;4.83;;;5.00;99.90;;;;;;5052296;28;20662;-73
2022/04/24 04:25:19;;;;;;;7.63;5.13;;;5.10;99.90;;;;;;5052646;28;20772;-73
2022/04/24 04:27:48;;;;;;;7.37;4.83;;;5.40;99.90;;;;;;5051348;28;20191;-73
2022/04/24 04:30:15;;;;;;;9.20;4.43;;;5.30;99.90;;;;;;5052237;28;20217;-73
2022/04/24 04:32:42;;;;;;;9.10;4.77;;;5.20;99.90;;;;;;5052496;28;20199;-73
2022/04/24 04:35:10;;;;;;;7.30;4.97;;;5.30;99.90;;;;;;5051427;28;20579;-72
2022/04/24 04:37:37;;;;;;;6.60;5.03;;;5.30;99.90;;;;;;5051550;28;20681;-73
2022/04/24 04:40:05;;;;;;;8.67;5.27;;;5.60;99.90;;;;;;5051011;28;20256;-73
2022/04/24 04:42:32;;;;;;;7.50;5.23;;;5.90;99.90;;;;;;5049820;28;20581;-73
2022/04/24 04:45:01;;;;;;;9.10;5.00;;;6.10;99.90;;;;;;5050946;28;20239;-73
2022/04/24 04:47:28;;;;;;;8.53;4.73;;;6.30;99.90;;;;;;5050515;28;20209;-73
2022/04/24 04:49:55;;;;;;;6.60;4.70;;;6.40;99.90;;;;;;5050560;28;20203;-73
2022/04/24 04:52:22;;;;;;;8.57;5.10;;;6.80;99.90;;;;;;5052066;28;20222;-73
2022/04/24 04:54:49;;;;;;;9.53;5.67;;;7.00;99.90;;;;;;5050969;28;20662;-73
2022/04/24 04:57:17;;;;;;;9.67;5.00;;;7.60;99.90;;;;;;5051220;28;20260;-73
2022/04/24 04:59:44;;;;;;;8.20;5.40;;;8.20;99.90;;;;;;5050311;28;20210;-73
2022/04/24 05:02:13;;;;;;;7.67;5.00;;;8.60;99.90;;;;;;5028672;28;189773;-73
2022/04/24 05:04:43;;;;;;;7.97;5.70;;;8.70;99.90;;;;;;5051298;28;20215;-73
2022/04/24 05:07:10;;;;;;;8.33;4.83;;;8.40;99.90;;;;;;5053250;28;20203;-73
2022/04/24 05:09:37;;;;;;;8.20;4.77;;;8.30;99.90;;;;;;5047162;28;20203;-73
2022/04/24 05:12:05;;;;;;;6.83;4.90;;;8.50;99.90;;;;;;5057788;28;20223;-73
2022/04/24 05:14:32;;;;;;;7.07;5.23;;;8.70;99.90;;;;;;5047948;28;20238;-73
2022/04/24 05:17:00;;;;;;;7.33;5.10;;;8.30;99.90;;;;;;5046059;28;20199;-73
2022/04/24 05:19:28;;;;;;;9.00;5.07;;;8.20;99.90;;;;;;5049216;28;20623;-73
2022/04/24 05:21:55;;;;;;;8.03;5.13;;;8.20;99.90;;;;;;5052849;28;20211;-73
2022/04/24 05:24:22;;;;;;;10.13;5.70;;;7.80;99.90;;;;;;5046930;28;20222;-73
2022/04/24 05:26:49;;;;;;;7.77;5.70;;;8.10;99.90;;;;;;5048246;28;20211;-74
2022/04/24 05:29:17;;;;;;;8.00;5.43;;;8.10;99.90;;;;;;5048705;28;20203;-73
2022/04/24 05:31:44;;;;;;;8.60;5.80;;;7.90;99.90;;;;;;5048247;28;20875;-73
2022/04/24 05:34:11;;;;;;;7.07;5.60;;;8.70;99.90;;;;;;5048069;28;20615;-73
2022/04/24 05:36:39;;;;;;;7.97;5.57;;;8.70;99.90;;;;;;5048124;28;20618;-74
2022/04/24 05:39:06;;;;;;;8.90;5.50;;;8.30;99.90;;;;;;5044519;28;20646;-73
2022/04/24 05:41:33;;;;;;;9.57;6.10;;;8.10;99.90;;;;;;5047195;28;20727;-73
2022/04/24 05:44:00;;;;;;;8.70;5.90;;;8.30;99.90;;;;;;5056293;28;20661;-73
2022/04/24 05:46:27;;;;;;;10.83;5.60;;;9.00;99.90;;;;;;5046423;28;20202;-73
2022/04/24 05:48:55;;;;;;;7.67;5.43;;;8.90;99.90;;;;;;5044967;28;20199;-73
2022/04/24 05:51:22;;;;;;;8.23;5.93;;;8.20;99.90;;;;;;5041910;28;20226;-73
2022/04/24 05:53:50;;;;;;;11.47;6.17;;;8.70;99.90;;;;;;5049325;28;20261;-73
2022/04/24 05:56:17;;;;;;;7.97;5.70;;;8.70;99.90;;;;;;5047566;28;20618;-73
2022/04/24 05:58:44;;;;;;;7.60;5.47;;;8.30;99.90;;;;;;5048085;28;20206;-73
2022/04/24 06:01:11;;;;;;;10.03;5.80;;;8.80;99.90;;;;;;5046690;28;20203;-73
2022/04/24 06:03:40;;;;;;;9.80;5.93;;;9.80;99.90;;;;;;5046919;28;20203;-73
2022/04/24 06:06:07;;;;;;;7.53;5.00;;;9.90;99.90;;;;;;5045979;28;20202;-73
2022/04/24 06:08:34;;;;;;;7.57;5.03;;;10.10;99.90;;;;;;5050492;28;20204;-73
2022/04/24 06:11:02;;;;;;;9.87;5.43;;;8.90;99.90;;;;;;5051155;28;20647;-73
2022/04/24 06:13:29;;;;;;;8.27;5.30;;;9.40;99.90;;;;;;5048300;28;20674;-73
2022/04/24 06:15:57;;;;;;;8.97;5.77;;;9.30;99.90;;;;;;5055170;28;20282;-73
2022/04/24 06:18:25;;;;;;;6.97;4.97;;;9.00;99.90;;;;;;5046058;28;20620;-73
2022/04/24 06:20:52;;;;;;;7.87;5.33;;;9.00;99.90;;;;;;5044404;28;20209;-73
2022/04/24 06:23:19;;;;;;;10.23;6.33;;;8.90;99.90;;;;;;5047219;28;20245;-72
2022/04/24 06:25:47;;;;;;;11.93;5.63;;;8.80;99.90;;;;;;5047246;28;20654;-75
2022/04/24 06:28:15;;;;;;;9.00;6.00;;;9.30;99.90;;;;;;5043598;28;20204;-74
2022/04/24 06:30:42;;;;;;;9.27;5.30;;;9.40;99.90;;;;;;5050161;28;20660;-74
2022/04/24 06:33:11;;;;;;;8.13;5.50;;;9.50;99.90;;;;;;5046990;28;20286;-75
2022/04/24 06:35:39;;;;;;;10.13;5.77;;;9.80;99.90;;;;;;5045983;28;20207;-75
2022/04/24 06:38:06;;;;;;;7.40;5.47;;;10.00;99.90;;;;;;5048389;28;20226;-75
2022/04/24 06:40:34;;;;;;;8.20;5.40;;;9.90;99.20;;;;;;5055564;28;20558;-75
2022/04/24 06:43:04;;;;;;;12.43;5.83;;;10.00;99.90;;;;;;5046686;28;20207;-73
2022/04/24 06:45:33;;;;;;;7.10;5.03;;;10.10;99.90;;;;;;5046159;28;20677;-75
2022/04/24 06:48:02;;;;;;;8.03;5.20;;;10.10;99.90;;;;;;5046300;28;20235;-78
2022/04/24 06:50:30;;;;;;;9.20;5.43;;;10.70;96.80;;;;;;5048970;28;20559;-77
2022/04/24 06:52:59;;;;;;;10.03;5.73;;;10.40;97.90;;;;;;5049755;28;20638;-77
2022/04/24 06:55:26;;;;;;;7.30;4.73;;;10.20;96.30;;;;;;5044883;28;20199;-77
2022/04/24 06:57:53;;;;;;;7.67;4.60;;;10.50;95.90;;;;;;5049423;28;20198;-77
2022/04/24 07:00:21;;;;;;;7.33;4.77;;;10.50;95.40;;;;;;5052008;28;20202;-78
2022/04/24 07:02:50;;;;;;;7.43;4.30;;;10.40;93.60;;;;;;5057753;28;20243;-77
2022/04/24 07:05:21;;;;;;;6.63;4.57;;;10.40;93.90;;;;;;5050443;28;20203;-77
2022/04/24 07:07:48;;;;;;;6.07;4.20;;;11.00;92.40;;;;;;5044765;28;20196;-77
2022/04/24 07:10:15;;;;;;;8.10;4.57;;;11.30;91.70;;;;;;5032992;28;20269;-77
2022/04/24 07:12:47;;;;;;;8.03;4.43;;;11.30;91.80;;;;;;5051099;28;20227;-78
2022/04/24 07:15:14;;;;;;;7.03;5.03;;;10.90;90.40;;;;;;5049763;28;20630;-77
2022/04/24 07:17:42;;;;;;;7.37;4.30;;;10.70;92.20;;;;;;5047353;28;20206;-78
2022/04/24 07:20:11;;;;;;;9.27;5.03;;;11.00;93.10;;;;;;5051203;28;20206;-78
2022/04/24 07:22:44;;;;;;;6.37;4.70;;;10.80;95.60;;;;;;5050826;28;20241;-78
2022/04/24 07:25:12;;;;;;;6.83;4.03;;;11.20;88.50;;;;;;5050783;28;20199;-78
2022/04/24 07:27:39;;;;;;;8.13;4.57;;;11.00;86.50;;;;;;5050791;28;20204;-78
2022/04/24 07:30:13;;;;;;;7.97;4.43;;;11.20;90.00;;;;;;5051064;28;20199;-78
2022/04/24 07:32:41;;;;;;;9.73;5.20;;;11.10;90.40;;;;;;5050738;28;20257;-77
2022/04/24 07:35:12;;;;;;;7.80;4.60;;;10.90;90.90;;;;;;5049859;28;20203;-78
2022/04/24 07:37:39;;;;;;;6.67;4.70;;;10.50;91.80;;;;;;5050677;28;20230;-77
2022/04/24 07:40:08;;;;;;;6.10;4.70;;;10.50;92.20;;;;;;5050826;28;20199;-78
2022/04/24 07:42:45;;;;;;;9.40;5.07;;;10.80;94.50;;;;;;5049800;28;20229;-77
2022/04/24 07:45:12;;;;;;;7.57;5.10;;;11.00;93.90;;;;;;5049573;28;20560;-77
2022/04/24 07:47:40;;;;;;;5.60;4.67;;;11.00;92.20;;;;;;5050983;28;20646;-78
2022/04/24 07:50:08;;;;;;;5.67;4.60;;;11.00;92.60;;;;;;5050531;28;20878;-78
2022/04/24 07:52:36;;;;;;;6.43;4.50;;;11.10;91.80;;;;;;5050722;28;20779;-78
2022/04/24 07:55:03;;;;;;;7.37;4.70;;;11.40;90.30;;;;;;5049688;28;20256;-78
2022/04/24 07:57:30;;;;;;;7.40;4.53;;;11.50;90.00;;;;;;5051087;28;20556;-78
2022/04/24 07:59:58;;;;;;;7.20;4.77;;;11.60;82.20;;;;;;5049791;28;20732;-79
2022/04/24 08:02:25;;;;;;;6.60;4.90;;;11.20;86.40;;;;;;5051152;28;20203;-78
2022/04/24 08:04:52;;;;;;;8.30;5.00;;;11.50;87.20;;;;;;5049457;28;20207;-79
2022/04/24 08:07:22;;;;;;;9.17;5.00;;;11.50;81.40;;;;;;5050697;28;20198;-78
2022/04/24 08:09:51;;;;;;;8.57;5.10;;;11.40;81.50;;;;;;5049751;28;20215;-78
2022/04/24 08:12:18;;;;;;;6.90;5.10;;;11.40;80.40;;;;;;5036980;28;20611;-78
2022/04/24 08:14:45;;;;;;;8.63;4.70;;;11.50;80.30;;;;;;5050654;28;20203;-77
2022/04/24 08:17:12;;;;;;;7.13;4.90;;;11.80;78.80;;;;;;5052771;28;20207;-78
2022/04/24 08:19:39;;;;;;;7.73;4.73;;;11.60;80.70;;;;;;5054357;28;20563;-78
2022/04/24 08:22:06;;;;;;;10.10;5.10;;;11.70;79.20;;;;;;5053137;28;20235;-78
2022/04/24 08:24:33;;;;;;;8.50;5.00;;;11.80;76.50;;;;;;5053473;28;20207;-78
2022/04/24 08:27:01;;;;;;;7.80;4.60;;;12.00;78.30;;;;;;5054631;28;20264;-77
2022/04/24 08:29:28;;;;;;;6.03;4.50;;;12.00;81.70;;;;;;5051951;28;20203;-78
2022/04/24 08:31:55;;;;;;;6.93;4.60;;;11.80;79.50;;;;;;5054049;28;20219;-78
2022/04/24 08:34:22;;;;;;;7.50;4.87;;;11.90;79.20;;;;;;5051272;28;20207;-78
2022/04/24 08:36:49;;;;;;;8.53;4.93;;;11.90;76.50;;;;;;5043535;28;20208;-78
2022/04/24 08:39:16;;;;;;;9.00;5.03;;;11.90;75.40;;;;;;5056116;28;21216;-77
2022/04/24 08:41:44;;;;;;;10.60;5.00;;;12.20;86.90;;;;;;5050939;28;20677;-77
2022/04/24 08:44:13;;;;;;;6.83;4.80;;;12.30;73.00;;;;;;5048621;28;20276;-78
2022/04/24 08:46:43;;;;;;;9.97;5.43;;;12.40;73.40;;;;;;5043387;28;20238;-77
2022/04/24 08:49:11;;;;;;;7.87;5.20;;;12.40;77.50;;;;;;5050934;28;20246;-79
2022/04/24 08:51:41;;;;;;;6.70;4.73;;;12.70;73.50;;;;;;5054780;28;20275;-81
2022/04/24 08:54:08;;;;;;;7.03;5.60;;;12.80;66.50;;;;;;5049683;28;20564;-78
2022/04/24 08:56:37;;;;;;;8.47;5.20;;;12.50;66.50;;;;;;5044652;28;20203;-80
2022/04/24 08:59:04;;;;;;;8.03;5.20;;;13.30;69.00;;;;;;5052228;28;20249;-78
2022/04/24 09:01:42;;;;;;;7.73;5.33;;;13.30;64.40;;;;;;5047818;28;20211;-77
2022/04/24 09:04:09;;;;;;;11.57;5.70;;;13.20;62.10;;;;;;5046820;28;20207;-79
2022/04/24 09:06:36;;;;;;;8.30;5.17;;;13.40;63.20;;;;;;5048541;28;20246;-78
2022/04/24 09:09:06;;;;;;;7.93;5.03;;;13.30;69.80;;;;;;5048968;28;20257;-79
2022/04/24 09:11:34;;;;;;;7.80;5.50;;;13.50;60.70;;;;;;5046875;28;20203;-78
2022/04/24 09:14:18;;;;;;;8.37;5.20;;;14.00;59.10;;;;;;5050046;28;20292;-77
2022/04/24 09:16:49;;;;;;;9.30;5.73;;;13.90;56.60;;;;;;5052458;28;20658;-78
2022/04/24 09:19:17;;;;;;;7.50;5.70;;;14.20;57.80;;;;;;5051697;28;20207;-79
2022/04/24 09:21:50;;;;;;;5.80;4.70;;;14.10;54.30;;;;;;5049364;28;20203;-77
2022/04/24 09:24:17;;;;;;;8.77;5.67;;;14.00;58.90;;;;;;5049770;28;20207;-78
2022/04/24 09:26:51;;;;;;;8.80;5.73;;;13.70;55.70;;;;;;5047158;28;20289;-78
2022/04/24 09:29:18;;;;;;;10.47;5.53;;;14.10;55.30;;;;;;5052669;28;20268;-78
2022/04/24 09:31:48;;;;;;;9.60;5.60;;;14.00;54.90;;;;;;5046031;28;20211;-78
2022/04/24 09:34:16;;;;;;;7.77;5.07;;;14.20;55.40;;;;;;5053740;28;20606;-78
2022/04/24 09:36:43;;;;;;;9.37;5.60;;;14.40;52.10;;;;;;5046313;28;20239;-77
2022/04/24 09:39:10;;;;;;;10.13;6.17;;;14.50;54.30;;;;;;5056450;28;20203;-78
2022/04/24 09:41:38;;;;;;;9.50;6.20;;;14.30;56.20;;;;;;5043930;28;20199;-77
2022/04/24 09:44:13;;;;;;;8.00;5.50;;;14.50;53.60;;;;;;5050207;28;20721;-80
2022/04/24 09:46:41;;;;;;;9.27;5.43;;;14.80;53.40;;;;;;5045653;28;20637;-76
2022/04/24 09:49:11;;;;;;;7.67;5.27;;;14.40;50.50;;;;;;5048937;28;20242;-74
2022/04/24 09:51:41;;;;;;;7.07;5.53;;;14.60;51.40;;;;;;5042866;28;20207;-74
2022/04/24 09:54:09;;;;;;;6.80;5.37;;;14.80;49.40;;;;;;5051440;28;20207;-74
2022/04/24 09:56:37;;;;;;;8.03;5.70;;;15.10;51.80;;;;;;5056062;28;20208;-74
2022/04/24 09:59:06;;;;;;;7.33;5.97;;;14.50;51.60;;;;;;5018570;23;20301;-81
2022/04/24 10:01:35;;;;;;;9.80;6.20;;;14.40;49.90;;;;;;4985104;28;20209;-81
2022/04/24 10:04:05;;;;;;;8.53;5.87;;;14.70;53.20;;;;;;4986223;28;20236;-82
2022/04/24 10:06:34;;;;;;;9.20;6.27;;;14.70;53.20;;;;;;4984907;28;20284;-81
2022/04/24 10:09:04;;;;;;;10.10;6.43;;;14.30;51.10;;;;;;4992862;28;20683;-82
2022/04/24 10:11:32;;;;;;;8.93;6.27;;;14.50;50.70;;;;;;4984653;28;20295;-82
2022/04/24 10:14:04;;;;;;;9.90;6.30;;;14.70;48.20;;;;;;4972446;28;20285;-82
2022/04/24 10:16:48;;;;;;;10.30;6.23;;;14.80;53.80;;;;;;4982752;28;20297;-81
2022/04/24 10:19:26;;;;;;;10.47;6.87;;;14.70;52.80;;;;;;4985493;28;20229;-81
2022/04/24 10:22:04;;;;;;;12.00;6.70;;;14.60;50.70;;;;;;4983049;28;20297;-81
2022/04/24 10:24:40;;;;;;;8.60;6.47;;;14.80;55.30;;;;;;4980086;28;20245;-81
2022/04/24 10:27:07;;;;;;;8.53;6.53;;;14.50;51.40;;;;;;4981913;28;20597;-82
2022/04/24 10:29:34;;;;;;;9.50;6.50;;;14.70;48.20;;;;;;4984833;28;20213;-81
2022/04/24 10:32:02;;;;;;;8.13;6.03;;;14.60;48.20;;;;;;4979166;28;20202;-81
2022/04/24 10:34:39;;;;;;;9.67;6.47;;;14.60;51.80;;;;;;4981566;28;20703;-81
2022/04/24 10:37:07;;;;;;;8.63;6.53;;;14.70;50.60;;;;;;4984502;28;20215;-82
2022/04/24 10:39:35;;;;;;;10.73;6.23;;;15.00;47.80;;;;;;4980267;28;20288;-82
2022/04/24 10:42:08;;;;;;;10.50;6.87;;;15.50;49.00;;;;;;4987406;28;20235;-82
2022/04/24 10:44:35;;;;;;;10.03;6.43;;;15.30;47.80;;;;;;4982119;28;20768;-82
2022/04/24 10:47:12;;;;;;;10.37;6.83;;;15.50;51.20;;;;;;4979796;28;20202;-82
2022/04/24 10:49:39;;;;;;;10.97;6.87;;;15.10;53.90;;;;;;4977623;28;20274;-82
2022/04/24 10:52:07;;;;;;;9.97;6.83;;;15.10;47.40;;;;;;4981625;28;20296;-83
2022/04/24 10:54:36;;;;;;;10.23;6.60;;;14.70;47.90;;;;;;4992435;28;20866;-83
2022/04/24 10:57:14;;;;;;;12.80;7.20;;;14.80;49.10;;;;;;4977727;28;20225;-82
2022/04/24 10:59:47;;;;;;;12.17;6.93;;;15.40;51.20;;;;;;4977220;28;20228;-83
2022/04/24 11:02:15;;;;;;;11.03;7.10;;;15.30;52.70;;;;;;4983284;28;20224;-82
2022/04/24 11:04:43;;;;;;;10.00;7.00;;;15.30;51.00;;;;;;4980280;28;20244;-82
2022/04/24 11:07:21;;;;;;;11.20;6.80;;;15.20;48.90;;;;;;4976561;28;20269;-82
2022/04/24 11:09:48;;;;;;;13.20;8.10;;;15.40;50.10;;;;;;4981182;28;20209;-82
2022/04/24 11:12:15;;;;;;;11.27;6.93;;;15.50;47.30;;;;;;4988021;28;20216;-83
2022/04/24 11:14:42;;;;;;;12.03;7.77;;;15.30;48.50;;;;;;4980305;28;20256;-83
2022/04/24 11:17:08;;;;;;;12.70;7.93;;;15.20;47.30;;;;;;4978750;28;20486;-82
2022/04/24 11:19:38;;;;;;;10.20;7.33;;;15.20;45.40;;;;;;4982401;28;20305;-82
2022/04/24 11:22:08;;;;;;;11.13;8.07;;;15.80;46.80;;;;;;4982202;28;20219;-83
2022/04/24 11:24:38;;;;;;;12.13;7.00;;;15.40;48.60;;;;;;4982460;28;20654;-83
2022/04/24 11:27:09;;;;;;;11.27;7.47;;;15.70;47.60;;;;;;4974697;28;20212;-83
2022/04/24 11:29:36;;;;;;;10.73;7.57;;;15.50;46.50;;;;;;4980629;28;20291;-83
2022/04/24 11:32:07;;;;;;;12.50;7.63;;;15.80;46.80;;;;;;4983771;28;20269;-83
2022/04/24 11:34:35;;;;;;;8.93;6.70;;;15.30;45.50;;;;;;4982965;28;20264;-82
2022/04/24 11:37:04;;;;;;;17.17;8.40;;;15.40;45.30;;;;;;4977812;28;20651;-82
2022/04/24 11:39:31;;;;;;;11.43;8.13;;;15.20;45.70;;;;;;4982633;28;20214;-82
2022/04/24 11:41:59;;;;;;;11.67;7.63;;;15.50;45.50;;;;;;4980343;28;20233;-82
2022/04/24 11:50:16;;;;;;;15.15;7.68;;;15.60;46.30;;;;;;4982375;28;20631;-82
2022/04/24 11:52:44;;;;;;;12.37;8.17;;;15.70;42.70;;;;;;4984888;28;20742;-82
2022/04/24 11:55:14;;;;;;;11.80;7.77;;;15.80;46.30;;;;;;4984993;28;20230;-82
2022/04/24 11:57:42;;;;;;;11.47;8.13;;;15.60;42.90;;;;;;4986483;28;20284;-81
2022/04/24 12:00:15;;;;;;;11.50;8.03;;;15.60;44.00;;;;;;4985947;28;20296;-82
2022/04/24 12:02:43;;;;;;;10.90;7.73;;;15.60;42.70;;;;;;4985915;28;20270;-82
2022/04/24 12:05:11;;;;;;;11.57;7.53;;;16.00;43.80;;;;;;4986797;28;20747;-81
2022/04/24 12:07:38;;;;;;;12.37;7.87;;;15.40;44.40;;;;;;4986686;28;20209;-81
2022/04/24 12:10:08;;;;;;;11.47;7.53;;;15.60;42.00;;;;;;4986472;28;20727;-82
2022/04/24 12:12:46;;;;;;;11.97;8.30;;;15.80;43.60;;;;;;4986561;28;20212;-83
2022/04/24 12:15:17;;;;;;;11.77;8.60;;;15.90;43.50;;;;;;4984343;28;20228;-82
2022/04/24 12:17:54;;;;;;;10.23;7.80;;;15.30;40.70;;;;;;4985439;28;20395;-82
2022/04/24 12:20:22;;;;;;;11.85;8.50;;;16.10;41.80;;;;;;4986798;28;20208;-82
2022/04/24 12:22:49;;;;;;;11.00;7.33;;;15.80;39.80;;;;;;4984818;28;20296;-83
2022/04/24 12:25:18;;;;;;;10.50;7.93;;;16.20;45.50;;;;;;4987786;28;20320;-83
2022/04/24 12:27:56;;;;;;;10.43;7.32;;;15.90;36.40;;;;;;4987363;28;20244;-82
2022/04/24 12:30:24;;;;;;;10.77;7.67;;;16.30;36.10;;;;;;4987327;28;20229;-83
2022/04/24 12:32:51;;;;;;;16.03;7.80;;;15.80;35.60;;;;;;4985073;28;20240;-81
2022/04/24 12:35:28;;;;;;;13.07;7.60;;;15.40;40.40;;;;;;4984810;28;20249;-80
2022/04/24 12:37:56;;;;;;;11.90;8.20;;;15.90;38.60;;;;;;4984176;28;20209;-82
2022/04/24 12:40:23;;;;;;;11.83;7.73;;;16.10;36.90;;;;;;4986257;28;20210;-82
2022/04/24 12:42:53;;;;;;;12.68;7.95;;;16.00;37.70;;;;;;4985285;28;20261;-81
2022/04/24 12:45:21;;;;;;;12.03;8.03;;;15.80;35.00;;;;;;4983204;28;20293;-82
2022/04/24 12:47:49;;;;;;;11.83;7.50;;;15.60;36.10;;;;;;4984065;28;20693;-80
2022/04/24 12:50:15;;;;;;;11.18;7.00;;;15.80;39.10;;;;;;4986154;28;20210;-82
2022/04/24 12:52:42;;;;;;;11.97;8.17;;;16.30;40.30;;;;;;4984600;28;20265;-81
2022/04/24 12:55:09;;;;;;;11.70;8.03;;;16.00;34.90;;;;;;4983091;28;20321;-82
2022/04/24 12:57:36;;;;;;;11.63;8.33;;;15.80;35.60;;;;;;4984022;28;20211;-82
2022/04/24 13:00:05;;;;;;;12.53;8.37;;;16.40;34.10;;;;;;4983159;28;20244;-82
2022/04/24 13:02:34;;;;;;;10.20;7.40;;;15.80;34.00;;;;;;4985369;28;20213;-83